createdAt,value
2022-08-16T00:08:37.057Z,13.45
2022-08-16T00:18:39.041Z,11.32
2022-08-16T00:28:40.541Z,13.25
2022-08-16T00:38:43.434Z,14.80
2022-08-16T00:48:45.876Z,15.07
2022-08-16T00:58:48.452Z,13.80
2022-08-16T01:08:54.897Z,14.70
2022-08-16T01:19:01.203Z,14.32
2022-08-16T01:29:10.777Z,14.75
2022-08-16T01:39:16.925Z,15.70
2022-08-16T01:49:25.855Z,17.63
2022-08-16T01:59:46.086Z,17.40
2022-08-16T02:09:56.887Z,19.55
2022-08-16T02:20:01.849Z,20.52
2022-08-16T02:30:36.719Z,19.52
2022-08-16T02:40:38.696Z,20.98
2022-08-16T02:50:54.767Z,22.02
2022-08-16T03:01:06.063Z,23.90
2022-08-16T03:11:20.504Z,24.17
2022-08-16T03:21:23.955Z,22.70
2022-08-16T03:31:26.139Z,24.33
2022-08-16T03:41:50.109Z,24.83
2022-08-16T03:51:55.796Z,25.75
2022-08-16T04:02:10.634Z,25.23
2022-08-16T04:12:52.477Z,26.67
2022-08-16T04:22:45.665Z,27.55
2022-08-16T04:32:51.052Z,26.02
2022-08-16T04:42:58.577Z,28.17
2022-08-16T04:53:02.897Z,28.38
2022-08-16T05:03:11.315Z,29.08
2022-08-16T05:13:19.665Z,27.02
2022-08-16T05:23:21.975Z,26.08
2022-08-16T05:33:26.154Z,26.08
2022-08-16T05:43:32.173Z,22.42
2022-08-16T05:53:47.186Z,20.55
2022-08-16T06:03:51.315Z,23.08
2022-08-16T06:14:19.381Z,20.35
2022-08-16T06:24:54.573Z,18.23
2022-08-16T06:34:57.137Z,17.08
2022-08-16T06:45:06.101Z,12.95
2022-08-16T06:55:33.754Z,12.02
2022-08-16T07:05:41.427Z,12.00
2022-08-16T07:15:51.215Z,11.82
2022-08-16T07:25:59.634Z,16.33
2022-08-16T07:36:01.441Z,12.15
2022-08-16T07:46:04.463Z,11.45
2022-08-16T07:56:11.098Z,10.35
2022-08-16T08:06:14.822Z,10.30
2022-08-16T08:16:18.927Z,9.88
2022-08-16T08:26:21.760Z,9.48
2022-08-16T08:36:33.409Z,9.65
2022-08-16T08:46:44.394Z,9.05
2022-08-16T08:57:02.935Z,11.57
2022-08-16T09:07:27.245Z,7.28
2022-08-16T09:17:49.235Z,7.47
2022-08-16T09:27:57.099Z,7.50
2022-08-16T09:38:01.321Z,7.70
2022-08-16T09:48:03.297Z,8.65
2022-08-16T09:58:05.467Z,8.23
2022-08-16T10:08:25.840Z,8.30
2022-08-16T10:19:00.304Z,7.05
2022-08-16T10:28:52.247Z,8.05
2022-08-16T10:38:53.717Z,7.75
2022-08-16T10:48:55.150Z,7.03
2022-08-16T10:59:28.849Z,7.13
2022-08-16T11:09:25.560Z,8.07
2022-08-16T11:19:30.459Z,10.43
2022-08-16T11:29:31.875Z,7.13
2022-08-16T11:39:34.286Z,7.63
2022-08-16T11:49:35.845Z,7.63
2022-08-16T11:59:40.000Z,8.00
2022-08-16T12:09:43.551Z,9.65
2022-08-16T12:19:45.176Z,12.23
2022-08-16T12:29:47.232Z,11.02
2022-08-16T12:39:51.138Z,10.02
2022-08-16T12:49:54.330Z,9.40
2022-08-16T12:59:55.749Z,9.77
2022-08-16T13:09:57.585Z,9.13
2022-08-16T13:20:08.041Z,9.10
2022-08-16T13:30:35.449Z,4.53
2022-08-16T13:40:32.753Z,5.25
2022-08-16T13:50:49.647Z,5.13
2022-08-16T14:00:53.650Z,5.00
2022-08-16T14:10:55.981Z,6.72
2022-08-16T14:20:57.399Z,7.35
2022-08-16T14:30:58.998Z,6.18
2022-08-16T14:41:01.777Z,5.70
2022-08-16T14:51:03.869Z,7.57
2022-08-16T15:01:10.005Z,8.32
2022-08-16T15:11:11.924Z,6.40
2022-08-16T15:21:13.835Z,5.90
2022-08-16T15:31:15.360Z,6.45
2022-08-16T15:41:28.975Z,7.43
2022-08-16T15:51:30.488Z,6.95
2022-08-16T16:01:32.486Z,5.95
2022-08-16T16:11:34.654Z,6.15
2022-08-16T16:21:37.136Z,6.35
2022-08-16T16:31:41.252Z,7.30
2022-08-16T16:41:45.423Z,6.85
2022-08-16T16:51:49.684Z,6.53
2022-08-16T17:02:00.377Z,6.90
2022-08-16T17:12:24.715Z,5.53
2022-08-16T17:22:32.742Z,6.30
2022-08-16T17:32:34.660Z,5.90
2022-08-16T17:42:52.804Z,5.70
2022-08-16T17:52:55.536Z,7.43
2022-08-16T18:02:58.304Z,6.85
2022-08-16T18:13:00.563Z,7.45
2022-08-16T18:23:09.784Z,7.30
2022-08-16T18:33:16.045Z,7.70
2022-08-16T18:43:19.915Z,8.30
2022-08-16T18:53:22.457Z,9.18
2022-08-16T19:03:27.696Z,14.70
2022-08-16T19:13:30.575Z,15.18
2022-08-16T19:23:33.384Z,15.23
2022-08-16T19:33:35.408Z,19.10
2022-08-16T19:43:38.517Z,19.77
2022-08-16T19:53:39.977Z,20.80
2022-08-16T20:03:41.376Z,23.23
2022-08-16T20:13:42.805Z,22.85
2022-08-16T20:23:44.242Z,25.50
2022-08-16T20:33:45.874Z,27.63
2022-08-16T20:43:48.771Z,25.95
2022-08-16T20:53:50.276Z,25.17
2022-08-16T21:03:51.697Z,20.63
2022-08-16T21:14:00.321Z,23.83
2022-08-16T21:24:02.310Z,23.85
2022-08-16T21:34:03.700Z,27.17
2022-08-16T21:44:05.806Z,29.42
2022-08-16T21:54:07.286Z,28.75
2022-08-16T22:04:36.532Z,31.27
2022-08-16T22:14:32.322Z,30.05
2022-08-16T22:24:33.799Z,33.95
2022-08-16T22:34:35.233Z,38.67
2022-08-16T22:44:37.491Z,37.70
2022-08-16T22:54:48.358Z,36.90
2022-08-16T23:04:50.388Z,37.42
2022-08-16T23:14:51.812Z,40.70
2022-08-16T23:24:56.603Z,42.70
2022-08-16T23:35:02.944Z,40.90
2022-08-16T23:45:05.813Z,42.90
2022-08-16T23:55:07.702Z,44.33
